Time;durP1;ratioP1;P1;durP2;ratioP2;P2;SDS_P1;SDS_P2;PMS_P1;PMS_P2;Temp;Humidity;BMP_temperature;BMP_pressure;BME280_temperature;BME280_humidity;BME280_pressure;Samples;Min_cycle;Max_cycle;Signal;HPM_P1;HPM_P2
2022/08/01 00:00:06;;;;;;;7.32;4.15;;;17.70;99.90;;;18.26;100.00;98823.75;5083085;27;119490;-75
2022/08/01 00:02:35;;;;;;;6.97;4.30;;;17.80;99.90;;;18.28;100.00;98821.41;5066073;27;129236;-76
2022/08/01 00:05:06;;;;;;;7.70;4.20;;;17.70;99.90;;;18.31;100.00;98819.88;5082509;27;129480;-73
2022/08/01 00:07:36;;;;;;;7.13;4.47;;;17.70;99.90;;;18.28;100.00;98826.13;5082978;27;119421;-74
2022/08/01 00:10:05;;;;;;;8.15;4.70;;;17.70;99.90;;;18.28;100.00;98820.63;5067744;27;118390;-76
2022/08/01 00:12:34;;;;;;;6.60;4.40;;;17.80;99.90;;;18.27;100.00;98814.31;5082665;27;130537;-73
2022/08/01 00:15:05;;;;;;;8.15;4.15;;;17.80;99.90;;;18.27;100.00;98814.31;5063957;27;130629;-75
2022/08/01 00:17:34;;;;;;;6.93;3.95;;;17.80;99.90;;;18.29;100.00;98814.75;5083126;27;119418;-77
2022/08/01 00:20:05;;;;;;;7.72;4.65;;;17.80;99.90;;;18.33;100.00;98814.78;5083289;27;119537;-75
2022/08/01 00:22:35;;;;;;;6.30;4.82;;;17.80;99.90;;;18.36;100.00;98816.75;5082430;27;130449;-74
2022/08/01 00:25:05;;;;;;;9.25;4.32;;;17.80;99.90;;;18.37;100.00;98812.84;5082333;27;130110;-78
2022/08/01 00:27:34;;;;;;;6.20;4.22;;;17.80;99.90;;;18.38;100.00;98808.13;5081330;27;121819;-75
2022/08/01 00:30:02;;;;;;;7.13;4.20;;;17.80;99.90;;;18.36;100.00;98805.00;5063893;27;121754;-74
2022/08/01 00:32:32;;;;;;;7.47;4.20;;;17.80;99.90;;;18.37;100.00;98801.06;5082309;27;130436;-73
2022/08/01 00:35:01;;;;;;;6.03;3.58;;;17.80;99.90;;;18.37;100.00;98801.06;5082331;27;129249;-76
2022/08/01 00:37:31;;;;;;;8.23;4.47;;;17.80;99.90;;;18.33;100.00;98812.81;5082642;27;120352;-74
2022/08/01 00:39:59;;;;;;;7.57;4.32;;;17.80;99.90;;;18.31;100.00;98804.16;5082621;27;119354;-74
2022/08/01 00:42:28;;;;;;;7.43;4.35;;;17.80;99.90;;;18.32;100.00;98799.44;5067155;27;129947;-74
2022/08/01 00:44:57;;;;;;;6.68;4.40;;;17.80;99.90;;;18.25;100.00;98800.19;5082565;27;130379;-76
2022/08/01 00:47:26;;;;;;;6.30;4.05;;;17.90;99.90;;;18.25;100.00;98800.19;5063830;27;119688;-74
2022/08/01 00:49:55;;;;;;;7.80;4.28;;;17.90;99.90;;;18.27;100.00;98803.34;5050150;27;118349;-71
2022/08/01 00:52:24;;;;;;;7.30;3.60;;;17.90;99.90;;;18.26;100.00;98785.31;5081197;27;129971;-73
2022/08/01 00:54:54;;;;;;;7.32;4.03;;;17.90;99.90;;;18.27;100.00;98784.09;5065570;27;129612;-72
2022/08/01 00:57:23;;;;;;;6.60;4.10;;;17.80;99.90;;;18.28;100.00;98788.44;5082144;27;120042;-72
2022/08/01 00:59:51;;;;;;;6.82;4.68;;;17.80;99.90;;;18.28;100.00;98782.94;5082601;27;118931;-76
2022/08/01 01:02:20;;;;;;;5.82;4.00;;;17.80;99.90;;;18.28;100.00;98785.69;5080873;27;131217;-74
2022/08/01 01:04:49;;;;;;;9.77;4.32;;;17.80;99.90;;;18.33;100.00;98781.81;5082575;27;129483;-74
2022/08/01 01:07:25;;;;;;;6.82;4.00;;;17.70;99.90;;;18.30;100.00;98780.59;5049886;27;118964;-74
2022/08/01 01:10:04;;;;;;;6.65;3.63;;;17.70;99.90;;;18.37;100.00;98785.38;5067402;27;119471;-77
2022/08/01 01:12:39;;;;;;;6.50;4.03;;;17.70;99.90;;;18.36;100.00;98783.00;5081423;27;130045;-74
2022/08/01 01:15:14;;;;;;;8.38;4.50;;;17.70;99.90;;;18.33;100.00;98777.09;5066548;27;128602;-76
2022/08/01 01:17:52;;;;;;;7.63;4.20;;;17.70;99.90;;;18.38;100.00;98781.44;5080706;27;122470;-77
2022/08/01 01:20:31;;;;;;;7.13;4.68;;;17.70;99.90;;;18.43;100.00;98785.78;5066684;27;121382;-76
2022/08/01 01:23:25;;;;;;;7.32;4.22;;;17.70;99.90;;;18.42;100.00;98781.50;5081590;27;130326;-76
2022/08/01 01:26:13;;;;;;;7.18;4.03;;;17.70;99.90;;;18.44;100.00;98779.13;5081570;27;129622;-74
2022/08/01 01:29:05;;;;;;;7.68;4.10;;;17.70;99.90;;;18.44;100.00;98776.41;5081706;27;119598;-72
2022/08/01 01:31:43;;;;;;;7.15;4.55;;;17.70;99.90;;;18.45;100.00;98780.69;5083439;27;119479;-78
2022/08/01 01:34:16;;;;;;;11.93;5.05;;;17.80;99.90;;;18.46;100.00;98776.78;5065953;27;129487;-79
2022/08/01 01:36:46;;;;;;;8.32;4.50;;;17.70;99.90;;;18.46;100.00;98779.53;5082020;27;130012;-79
2022/08/01 01:39:16;;;;;;;7.72;4.60;;;17.70;99.90;;;18.46;100.00;98780.31;5066681;27;119593;-77
2022/08/01 01:41:47;;;;;;;8.38;5.15;;;17.70;99.90;;;18.45;100.00;98775.19;5063131;27;119282;-76
2022/08/01 01:44:19;;;;;;;13.30;5.80;;;17.70;99.90;;;18.44;100.00;98779.13;5079989;27;130051;-79
2022/08/01 01:46:49;;;;;;;8.75;5.10;;;17.70;99.90;;;18.43;100.00;98770.13;5080988;27;131196;-78
2022/08/01 01:49:20;;;;;;;10.55;5.00;;;17.70;99.90;;;18.47;100.00;98768.16;5066281;27;119469;-77
2022/08/01 01:51:51;;;;;;;8.73;5.13;;;17.70;99.90;;;18.50;100.00;98766.63;5081504;27;119252;-76
2022/08/01 01:54:21;;;;;;;10.93;5.20;;;17.80;99.90;;;18.55;100.00;98762.72;5082358;27;129882;-75
2022/08/01 01:56:52;;;;;;;9.38;5.03;;;17.80;99.90;;;18.56;100.00;98764.28;5080860;27;129872;-78
2022/08/01 01:59:26;;;;;;;9.50;5.30;;;17.70;99.90;;;18.53;100.00;98770.53;5081281;27;119695;-76
2022/08/01 02:02:00;;;;;;;11.13;5.40;;;17.80;99.90;;;18.48;100.00;98764.25;5081941;27;119119;-75
2022/08/01 02:04:32;;;;;;;9.35;5.45;;;17.80;99.90;;;18.52;100.00;98767.03;5062360;27;129444;-77
2022/08/01 02:07:01;;;;;;;9.95;5.32;;;17.80;99.90;;;18.51;100.00;98759.94;5077822;27;129917;-74
2022/08/01 02:09:31;;;;;;;9.63;6.35;;;17.80;99.90;;;18.52;100.00;98758.78;5080009;27;121752;-77
2022/08/01 02:12:03;;;;;;;12.25;5.60;;;17.80;99.90;;;18.52;100.00;98764.28;5084332;27;121918;-76
2022/08/01 02:14:35;;;;;;;13.20;5.85;;;17.80;99.90;;;18.54;100.00;98759.19;5080309;27;130275;-78
2022/08/01 02:17:05;;;;;;;13.10;6.10;;;17.80;99.90;;;18.49;100.00;98751.31;5080615;27;129499;-75
2022/08/01 02:19:34;;;;;;;11.55;6.35;;;17.80;99.90;;;18.47;100.00;98757.19;5081139;27;120223;-77
2022/08/01 02:22:10;;;;;;;13.18;7.05;;;17.80;99.90;;;18.48;100.00;98753.28;5062618;27;119604;-78
2022/08/01 02:24:45;;;;;;;14.30;6.20;;;17.80;99.90;;;18.50;100.00;98761.13;5080421;27;129931;-76
2022/08/01 02:27:24;;;;;;;10.40;6.03;;;17.80;99.90;;;18.51;100.00;98759.94;5062726;27;129510;-76
2022/08/01 02:29:59;;;;;;;10.60;5.22;;;17.80;99.90;;;18.50;100.00;98753.66;5080728;27;120100;-75
2022/08/01 02:32:33;;;;;;;8.57;5.47;;;17.80;99.90;;;18.53;100.00;98765.06;5080756;27;119133;-74
2022/08/01 02:35:03;;;;;;;10.65;4.82;;;17.80;99.90;;;18.52;100.00;98761.53;5047139;27;131013;-78
2022/08/01 02:37:37;;;;;;;7.13;4.38;;;17.80;99.90;;;18.50;100.00;98761.13;5065528;27;128152;-77
2022/08/01 02:40:09;;;;;;;7.80;4.22;;;17.80;99.90;;;18.51;100.00;98757.19;5065613;27;119180;-75
2022/08/01 02:42:40;;;;;;;6.15;3.88;;;17.80;99.90;;;18.52;100.00;98761.53;5080788;27;119505;-76
2022/08/01 02:45:12;;;;;;;7.60;4.05;;;17.80;99.90;;;18.51;100.00;98757.19;5080357;27;129860;-77
2022/08/01 02:47:43;;;;;;;6.43;4.18;;;17.80;99.90;;;18.55;100.00;98757.25;5065372;27;128556;-73
2022/08/01 02:50:13;;;;;;;9.73;4.45;;;17.80;99.90;;;18.56;100.00;98759.59;5065565;27;119053;-76
2022/08/01 02:52:42;;;;;;;6.75;3.78;;;17.80;99.90;;;18.55;100.00;98758.00;5049044;27;118567;-76
2022/08/01 02:55:12;;;;;;;6.35;3.97;;;17.80;99.90;;;18.56;99.65;98748.63;5082984;27;129537;-74
2022/08/01 02:57:43;;;;;;;8.40;4.25;;;17.80;99.90;;;18.55;100.00;98752.53;5047910;27;129035;-74
2022/08/01 03:00:14;;;;;;;6.63;4.07;;;17.80;99.90;;;18.55;99.42;98755.25;5079220;27;123187;-78
2022/08/01 03:02:44;;;;;;;8.27;4.20;;;17.80;99.90;;;18.59;99.14;98758.84;5080421;27;121741;-77
2022/08/01 03:05:15;;;;;;;9.98;3.92;;;17.80;99.90;;;18.53;99.51;98754.88;5079867;27;129983;-74
2022/08/01 03:07:44;;;;;;;7.47;3.95;;;17.80;99.90;;;18.55;99.55;98755.25;5079987;27;129568;-75
2022/08/01 03:10:14;;;;;;;5.97;3.58;;;17.80;99.90;;;18.53;99.72;98751.31;5065265;27;119383;-76
2022/08/01 03:12:44;;;;;;;7.18;4.00;;;17.70;99.90;;;18.47;99.60;98748.94;5080237;27;119494;-72
2022/08/01 03:15:16;;;;;;;5.63;3.42;;;17.80;99.90;;;18.50;99.52;98744.66;5080098;27;129811;-75
2022/08/01 03:17:48;;;;;;;6.97;3.95;;;17.80;99.90;;;18.57;99.05;98744.66;5080363;27;129514;-76
2022/08/01 03:20:19;;;;;;;10.63;4.47;;;17.80;99.90;;;18.58;99.41;98750.97;5080403;27;119942;-75
2022/08/01 03:22:51;;;;;;;9.35;3.95;;;17.80;99.90;;;18.52;100.00;98750.53;5065176;27;119412;-75
2022/08/01 03:25:21;;;;;;;8.00;4.10;;;17.80;99.90;;;18.58;99.20;98745.47;5079017;27;130418;-76
2022/08/01 03:28:00;;;;;;;7.70;4.38;;;17.80;99.90;;;18.58;98.37;98751.75;5064857;27;129515;-78
2022/08/01 03:30:33;;;;;;;8.63;4.10;;;17.80;99.90;;;18.60;98.54;98746.66;5085549;27;119245;-74
2022/08/01 03:33:01;;;;;;;7.80;4.65;;;17.80;99.90;;;18.62;98.14;98747.06;5083436;27;119743;-79
2022/08/01 03:35:35;;;;;;;6.47;4.18;;;17.90;99.90;;;18.68;97.96;98745.53;5068000;27;129152;-78
2022/08/01 03:38:06;;;;;;;8.88;4.50;;;17.90;99.90;;;18.65;97.93;98745.50;5083162;27;129683;-75
2022/08/01 03:40:40;;;;;;;7.22;4.20;;;17.90;99.90;;;18.74;97.57;98747.91;5077069;27;119770;-78
2022/08/01 03:43:16;;;;;;;7.22;4.55;;;17.90;99.90;;;18.82;96.92;98749.53;5069420;27;119277;-77
2022/08/01 03:45:51;;;;;;;8.07;4.65;;;18.00;99.90;;;18.84;96.53;98755.44;5073401;27;130398;-76
2022/08/01 03:48:27;;;;;;;7.85;4.70;;;18.00;99.90;;;18.85;97.51;98754.28;5064185;27;129737;-73
2022/08/01 03:50:58;;;;;;;8.52;5.00;;;18.00;99.90;;;18.88;96.32;98741.75;5081088;27;122212;-77
2022/08/01 03:53:33;;;;;;;8.07;5.53;;;18.00;99.90;;;18.92;95.72;98743.31;5082642;27;121900;-78
2022/08/01 03:56:03;;;;;;;7.88;5.70;;;18.00;99.90;;;18.95;96.65;98747.28;5082114;27;129835;-75
2022/08/01 03:58:32;;;;;;;6.97;5.75;;;18.10;99.90;;;18.92;95.71;98743.31;5067055;27;129172;-75
2022/08/01 04:01:03;;;;;;;8.07;5.65;;;18.10;99.90;;;18.92;95.35;98746.06;5075160;27;119515;-75
2022/08/01 04:03:33;;;;;;;9.25;5.70;;;18.10;99.90;;;19.01;95.33;98752.00;5067176;27;119281;-78
2022/08/01 04:06:04;;;;;;;8.60;5.40;;;18.10;99.90;;;19.12;94.77;98741.06;5082144;27;129767;-77
2022/08/01 04:08:37;;;;;;;8.93;5.78;;;18.20;99.90;;;19.23;93.83;98741.09;5067612;27;129374;-76
2022/08/01 04:11:07;;;;;;;8.45;5.50;;;18.20;99.90;;;19.26;93.05;98740.31;5081951;27;119213;-77
2022/08/01 04:13:35;;;;;;;8.10;5.00;;;18.30;99.90;;;19.30;92.95;98741.09;5082318;27;119790;-73
2022/08/01 04:16:06;;;;;;;8.23;4.70;;;18.40;99.90;;;19.45;91.45;98741.16;5080661;27;129913;-76
2022/08/01 04:18:34;;;;;;;7.97;4.68;;;18.40;99.90;;;19.56;90.81;98736.44;5067147;27;128695;-77
2022/08/01 04:21:03;;;;;;;6.43;4.30;;;18.50;99.90;;;19.67;89.97;98736.47;5063504;27;120041;-76
2022/08/01 04:23:34;;;;;;;7.90;4.65;;;18.60;99.90;;;19.75;89.36;98735.28;5067024;27;119116;-74
2022/08/01 04:26:05;;;;;;;9.30;4.05;;;18.60;99.90;;;19.75;88.60;98730.56;5080850;27;130664;-76
2022/08/01 04:28:37;;;;;;;10.65;4.63;;;18.60;99.90;;;19.96;87.75;98734.56;5066792;27;128761;-82
2022/08/01 04:31:11;;;;;;;9.50;4.70;;;18.70;99.90;;;20.09;87.41;98734.94;5066985;27;118436;-77
2022/08/01 04:33:43;;;;;;;7.03;3.67;;;18.90;99.90;;;20.18;86.17;98734.53;5064196;27;119783;-77
2022/08/01 04:36:15;;;;;;;8.85;4.10;;;19.00;99.90;;;20.25;84.93;98737.28;5080246;27;129990;-75
2022/08/01 04:38:50;;;;;;;6.90;4.13;;;19.00;99.90;;;20.46;85.03;98740.00;5082895;27;129723;-77
2022/08/01 04:41:19;;;;;;;8.85;3.90;;;19.20;99.90;;;20.56;83.98;98743.16;5082124;27;122097;-74
2022/08/01 04:43:48;;;;;;;6.05;4.10;;;19.30;99.90;;;20.72;83.21;98745.50;5082160;27;121802;-76
2022/08/01 04:46:20;;;;;;;6.63;3.45;;;19.20;99.90;;;20.79;82.08;98743.50;5080686;27;130779;-75
2022/08/01 04:48:50;;;;;;;9.70;4.10;;;19.20;99.90;;;20.96;81.72;98746.59;5081312;27;129326;-76
2022/08/01 04:51:21;;;;;;;5.68;3.35;;;19.40;99.90;;;21.01;81.68;98746.19;5063447;27;120253;-77
2022/08/01 04:53:51;;;;;;;6.53;3.97;;;19.40;99.90;;;21.09;81.65;98738.66;5082667;27;120048;-75
2022/08/01 04:56:21;;;;;;;7.10;3.85;;;19.50;99.90;;;21.24;80.84;98739.38;5065550;27;129433;-76
2022/08/01 04:59:39;;;;;;;9.32;4.25;;;19.60;99.90;;;21.30;80.04;98737.75;5081984;27;129443;-77
2022/08/01 05:01:40;;;;;;;7.20;4.05;;;19.70;99.90;;;21.48;79.27;98743.97;5083449;27;119931;-75
2022/08/01 05:04:09;;;;;;;6.65;3.80;;;19.80;99.90;;;21.53;79.10;98740.84;5081510;27;119184;-74
2022/08/01 05:06:37;;;;;;;6.07;4.00;;;19.70;99.90;;;21.66;78.67;98743.09;5080072;27;130080;-76
2022/08/01 05:09:06;;;;;;;7.70;4.40;;;19.80;99.90;;;21.79;77.44;98737.91;5065719;27;128538;-77
2022/08/01 05:11:34;;;;;;;5.95;3.60;;;20.00;99.90;;;22.21;76.38;98739.50;5066168;27;119822;-76
2022/08/01 05:14:02;;;;;;;8.70;4.15;;;20.30;99.90;;;22.51;75.22;98743.59;5081178;27;119608;-77
2022/08/01 05:16:31;;;;;;;6.38;3.83;;;20.50;99.90;;;22.83;73.48;98739.72;5081274;27;131072;-75
2022/08/01 05:19:02;;;;;;;8.30;4.03;;;20.80;99.90;;;22.71;73.33;98737.47;5077928;27;129579;-76
2022/08/01 05:21:30;;;;;;;8.25;3.95;;;20.60;99.90;;;23.07;72.78;98746.13;5060492;27;120194;-81
2022/08/01 05:23:59;;;;;;;10.63;3.72;;;20.90;99.90;;;23.31;71.67;98744.28;5043111;27;119710;-77
2022/08/01 05:26:28;;;;;;;7.03;3.83;;;21.10;99.90;;;23.46;70.46;98749.59;5059700;27;130495;-78
2022/08/01 05:28:56;;;;;;;8.25;4.68;;;21.30;99.90;;;23.55;69.87;98741.56;5059791;27;130043;-76
2022/08/01 05:31:25;;;;;;;8.90;3.97;;;21.20;99.90;;;23.12;71.52;98750.44;5059218;27;122387;-77
2022/08/01 05:33:54;;;;;;;7.10;3.85;;;20.90;99.90;;;23.16;71.58;98745.66;5060974;27;122076;-76
2022/08/01 05:36:23;;;;;;;7.32;4.10;;;21.00;99.90;;;23.00;72.09;98753.72;5044591;27;129396;-76
2022/08/01 05:38:52;;;;;;;7.18;4.00;;;20.90;99.90;;;23.09;72.93;98743.78;5078941;27;130335;-77
2022/08/01 05:41:20;;;;;;;6.72;3.55;;;21.00;99.90;;;23.23;72.16;98751.09;5062018;27;119516;-78
2022/08/01 05:43:49;;;;;;;8.90;4.07;;;21.10;99.90;;;23.37;71.07;98746.56;5065969;27;118636;-77
2022/08/01 05:46:17;;;;;;;6.93;3.97;;;21.10;99.90;;;23.47;70.72;98737.34;5064714;27;129951;-77
2022/08/01 05:48:46;;;;;;;8.52;4.35;;;21.20;99.90;;;23.62;70.64;98737.91;5079564;27;129973;-74
2022/08/01 05:51:15;;;;;;;7.40;4.30;;;21.30;99.90;;;23.93;69.38;98749.72;5079377;27;119400;-74
2022/08/01 05:53:45;;;;;;;6.82;3.92;;;21.50;99.90;;;24.00;69.25;98751.63;5058480;27;119943;-75
2022/08/01 05:56:13;;;;;;;7.97;4.45;;;21.70;99.90;;;24.33;68.10;98747.06;5072315;27;129928;-73
2022/08/01 05:58:42;;;;;;;7.32;4.07;;;21.90;99.90;;;24.55;67.95;98755.00;5065129;27;129953;-74
2022/08/01 06:01:10;;;;;;;7.90;4.38;;;22.10;99.90;;;24.97;65.42;98743.56;5058959;27;119745;-77
2022/08/01 06:03:39;;;;;;;7.22;3.90;;;22.20;99.90;;;25.12;65.28;98751.16;5059965;27;119462;-74
2022/08/01 06:06:08;;;;;;;7.38;3.88;;;22.40;99.90;;;25.19;64.40;98752.22;5040433;27;129913;-79
2022/08/01 06:08:36;;;;;;;7.07;4.07;;;22.60;99.90;;;25.48;63.92;98750.41;5059621;27;130299;-75
2022/08/01 06:11:07;;;;;;;7.28;3.40;;;23.00;99.90;;;25.64;62.51;98757.97;5058987;27;120190;-78
2022/08/01 06:13:35;;;;;;;9.32;4.20;;;22.90;97.90;;;25.86;62.53;98746.38;5045326;27;118603;-79
2022/08/01 06:16:04;;;;;;;7.05;3.95;;;23.20;98.10;;;26.11;61.50;98740.22;5059228;27;129995;-76
2022/08/01 06:18:33;;;;;;;6.47;4.00;;;23.40;95.50;;;26.34;60.97;98746.81;5059581;27;129344;-77
2022/08/01 06:21:01;;;;;;;6.82;3.58;;;23.50;95.50;;;26.10;61.10;98747.00;5057587;27;122031;-76
2022/08/01 06:23:30;;;;;;;5.97;3.90;;;23.10;95.30;;;26.07;61.66;98745.09;5043908;27;121690;-75
2022/08/01 06:25:59;;;;;;;7.63;4.03;;;23.00;97.10;;;26.17;61.35;98749.59;5043645;27;129739;-76
2022/08/01 06:28:29;;;;;;;8.20;3.70;;;23.30;95.40;;;26.09;60.78;98751.00;5058900;27;130098;-78
2022/08/01 06:30:59;;;;;;;6.25;4.30;;;23.30;95.40;;;25.94;61.00;98747.75;5058657;27;120487;-74
2022/08/01 06:33:28;;;;;;;7.60;3.60;;;23.00;95.30;;;25.86;61.94;98749.13;5078496;27;119439;-76
2022/08/01 06:35:57;;;;;;;7.65;4.15;;;23.00;95.30;;;26.06;61.32;98749.09;5079501;27;130461;-74
2022/08/01 06:38:25;;;;;;;6.45;3.90;;;23.10;95.30;;;25.95;61.31;98754.88;5058776;27;129194;-77
2022/08/01 06:40:53;;;;;;;6.35;4.53;;;23.10;95.30;;;26.11;61.52;98751.34;5075134;27;119782;-76
2022/08/01 06:43:22;;;;;;;6.55;4.07;;;23.30;95.40;;;26.14;60.57;98750.47;5065215;27;118950;-77
2022/08/01 06:45:52;;;;;;;7.25;4.10;;;23.20;95.40;;;26.30;59.98;98751.66;5070183;27;129299;-77
2022/08/01 06:48:21;;;;;;;8.00;4.43;;;23.20;92.50;;;26.19;60.08;98755.50;5086468;27;129568;-75
2022/08/01 06:51:07;;;;;;;7.82;4.25;;;23.20;91.50;;;26.35;60.30;98759.47;5078367;27;118767;-81
2022/08/01 06:53:36;;;;;;;7.13;4.30;;;23.40;90.70;;;26.58;58.87;98749.34;5088447;27;119685;-77
2022/08/01 06:56:06;;;;;;;7.10;3.80;;;23.60;77.70;;;26.54;59.52;98744.66;5086182;27;129728;-77
2022/08/01 06:58:34;;;;;;;8.20;4.30;;;23.30;91.20;;;27.00;59.59;98741.06;5083843;27;129759;-78
2022/08/01 07:01:06;;;;;;;10.32;4.47;;;23.60;90.20;;;26.90;57.75;98740.16;5083134;27;119521;-76
2022/08/01 07:03:35;;;;;;;7.28;4.15;;;23.50;83.20;;;27.27;58.20;98733.09;5084475;27;118609;-78
2022/08/01 07:06:04;;;;;;;7.43;4.10;;;24.10;80.40;;;27.55;57.26;98736.25;5082547;27;130800;-75
2022/08/01 07:08:33;;;;;;;8.85;4.60;;;24.50;68.20;;;27.42;56.88;98732.69;5082542;27;130162;-78
2022/08/01 07:11:03;;;;;;;8.98;4.60;;;24.40;56.70;;;27.40;57.11;98732.34;5078758;27;122103;-79
2022/08/01 07:13:32;;;;;;;9.68;4.22;;;24.30;68.50;;;27.24;57.85;98728.41;5068651;27;121316;-76
2022/08/01 07:16:00;;;;;;;8.10;4.63;;;24.20;65.50;;;26.98;59.29;98733.16;5082592;27;131303;-76
2022/08/01 07:18:30;;;;;;;7.40;4.40;;;24.10;72.50;;;27.01;59.42;98726.69;5068193;27;129342;-78
2022/08/01 07:20:59;;;;;;;8.45;4.72;;;24.10;75.50;;;26.77;59.55;98731.78;5082825;27;119434;-75
2022/08/01 07:23:27;;;;;;;10.02;4.53;;;24.00;71.90;;;26.67;60.88;98721.72;5083236;27;119025;-77
2022/08/01 07:25:56;;;;;;;6.55;4.22;;;24.00;81.30;;;26.70;61.49;98726.41;5082288;27;129784;-77
2022/08/01 07:28:24;;;;;;;7.60;4.50;;;24.00;89.60;;;26.67;61.58;98724.50;5071203;27;130654;-76
2022/08/01 07:30:52;;;;;;;8.07;4.70;;;23.90;92.80;;;26.40;61.39;98728.38;5077577;27;119444;-74
2022/08/01 07:33:22;;;;;;;8.38;4.97;;;23.80;84.40;;;26.58;62.22;98727.09;5067682;27;119695;-76
2022/08/01 07:35:52;;;;;;;7.63;4.88;;;24.10;91.60;;;26.75;61.83;98731.41;5077694;27;129849;-75
2022/08/01 07:38:21;;;;;;;6.50;4.50;;;24.30;80.80;;;26.79;61.36;98732.09;5081885;27;129287;-76
2022/08/01 07:40:49;;;;;;;7.22;4.80;;;24.30;79.10;;;26.82;61.01;98728.44;5077814;27;119485;-76
2022/08/01 07:43:18;;;;;;;8.70;4.85;;;24.40;68.40;;;26.79;60.62;98726.53;5062011;27;120684;-76
2022/08/01 07:45:47;;;;;;;7.63;4.72;;;24.30;73.30;;;26.75;60.82;98725.84;5082098;27;130792;-80
2022/08/01 07:48:16;;;;;;;8.07;4.32;;;24.40;66.30;;;26.72;60.35;98721.97;5081505;27;129841;-77
2022/08/01 07:50:44;;;;;;;7.28;4.22;;;24.50;61.60;;;26.71;60.01;98725.19;5038829;27;121421;-74
2022/08/01 07:53:14;;;;;;;6.75;4.63;;;24.40;59.20;;;26.83;59.59;98727.22;5073040;27;119343;-74
2022/08/01 07:55:43;;;;;;;8.27;4.50;;;24.40;60.30;;;26.93;59.27;98730.13;5066550;27;128570;-77
2022/08/01 07:58:11;;;;;;;6.82;4.20;;;24.40;58.20;;;26.92;59.07;98723.00;5061806;27;129322;-76
2022/08/01 08:00:40;;;;;;;8.10;5.13;;;24.40;58.70;;;26.89;59.71;98727.44;5065719;27;122096;-74
2022/08/01 08:03:08;;;;;;;6.40;4.60;;;24.50;60.40;;;26.86;60.33;98726.31;5080691;27;121645;-78
2022/08/01 08:05:37;;;;;;;6.53;4.70;;;24.50;64.90;;;26.95;60.25;98722.13;5082341;27;129689;-76
2022/08/01 08:08:07;;;;;;;6.68;4.35;;;24.70;54.20;;;27.02;60.27;98727.47;5082499;27;130060;-71
2022/08/01 08:10:37;;;;;;;7.60;4.72;;;24.90;56.50;;;27.08;59.97;98720.94;5082370;27;119891;-78
2022/08/01 08:13:05;;;;;;;10.10;5.13;;;24.90;51.00;;;27.23;58.67;98720.50;5084075;27;119365;-79
2022/08/01 08:15:34;;;;;;;8.45;4.32;;;25.00;42.10;;;27.32;57.96;98714.31;5082825;27;130060;-75
2022/08/01 08:18:04;;;;;;;7.75;4.07;;;24.90;41.70;;;27.43;57.47;98721.09;5075523;27;129583;-77
2022/08/01 08:20:32;;;;;;;6.13;4.22;;;25.10;37.00;;;27.76;56.36;98722.88;5081985;27;119782;-74
2022/08/01 08:24:19;;;;;;;6.80;4.30;;;25.30;28.20;;;27.73;55.25;98729.34;5067083;27;118857;-73
2022/08/01 08:25:52;;;;;;;7.35;4.00;;;25.20;22.60;;;27.64;55.77;98729.22;5082526;27;129740;-76
2022/08/01 08:28:21;;;;;;;6.28;4.25;;;25.20;23.80;;;27.55;56.42;98733.47;5081899;27;131131;-79
2022/08/01 08:30:50;;;;;;;7.80;4.00;;;25.10;30.60;;;27.50;56.46;98728.44;5081342;27;120056;-77
2022/08/01 08:33:18;;;;;;;7.95;4.20;;;25.00;32.40;;;27.45;55.96;98731.78;5082483;27;119903;-74
2022/08/01 08:35:47;;;;;;;6.50;4.05;;;24.90;29.40;;;27.70;55.88;98724.66;5081365;27;130663;-76
2022/08/01 08:38:15;;;;;;;6.32;3.72;;;25.20;25.20;;;27.62;55.88;98724.09;5081864;27;129390;-75
2022/08/01 08:40:44;;;;;;;6.55;3.90;;;25.00;31.60;;;27.75;55.50;98732.44;5081132;27;119540;-76
2022/08/01 08:43:14;;;;;;;6.65;4.45;;;25.20;25.40;;;27.70;55.21;98724.66;5082706;27;119355;-74
2022/08/01 08:45:44;;;;;;;6.22;3.67;;;25.20;17.80;;;27.65;55.91;98722.44;5081385;27;130804;-75
2022/08/01 08:48:14;;;;;;;9.20;4.07;;;25.20;22.10;;;27.63;56.52;98720.09;5081631;27;129859;-78
2022/08/01 08:50:43;;;;;;;6.45;4.03;;;25.30;23.50;;;27.65;54.58;98719.66;5079980;27;122081;-74
2022/08/01 08:53:14;;;;;;;6.75;3.58;;;25.20;15.80;;;28.15;55.44;98729.19;5081017;27;122930;-81
2022/08/01 08:55:44;;;;;;;11.88;4.30;;;25.70;16.50;;;28.35;53.97;98726.13;5083849;27;129910;-76
2022/08/01 08:58:18;;;;;;;7.55;4.00;;;25.80;11.80;;;28.41;53.70;98726.31;5081432;27;129509;-76
2022/08/01 09:00:47;;;;;;;5.93;4.10;;;25.80;12.20;;;28.30;54.28;98710.72;5063119;27;119212;-72
2022/08/01 09:03:16;;;;;;;7.63;3.97;;;25.70;12.80;;;28.12;53.44;98710.56;5081334;27;120357;-76
2022/08/01 09:05:45;;;;;;;6.80;3.72;;;25.60;8.90;;;28.23;52.84;98713.75;5080719;27;130256;-76
2022/08/01 09:08:14;;;;;;;5.60;3.40;;;25.90;1.00;;;27.98;52.40;98718.16;5066465;27;127842;-79
2022/08/01 09:10:42;;;;;;;6.15;3.50;;;25.80;1.00;;;27.69;53.45;98714.72;5080894;27;119405;-75
2022/08/01 09:13:16;;;;;;;8.38;3.55;;;25.50;1.00;;;27.81;53.95;98708.34;5081290;27;119511;-74
2022/08/01 09:15:46;;;;;;;8.73;3.40;;;25.60;1.00;;;27.94;53.58;98711.13;5063952;27;129700;-75
2022/08/01 09:18:33;;;;;;;4.65;3.10;;;25.70;1.00;;;27.96;52.61;98709.47;5081053;27;129323;-74
2022/08/01 09:21:18;;;;;;;8.30;3.60;;;25.80;1.00;;;28.21;53.12;98712.66;5066107;27;119355;-77
2022/08/01 09:23:49;;;;;;;14.13;4.13;;;26.10;1.00;;;28.29;53.22;98722.34;5080122;27;119456;-78
2022/08/01 09:26:21;;;;;;;8.02;3.20;;;26.10;1.00;;;28.77;53.00;98713.91;5080565;27;129985;-76
2022/08/01 09:28:51;;;;;;;7.00;3.40;;;26.50;1.00;;;29.01;51.91;98714.97;5081201;27;129772;-77
2022/08/01 09:31:20;;;;;;;7.53;3.42;;;26.60;1.00;;;28.97;50.45;98719.94;5080464;27;119613;-76
2022/08/01 09:33:55;;;;;;;6.55;3.10;;;26.60;1.00;;;28.89;50.94;98709.47;5066152;27;119450;-77
2022/08/01 09:36:26;;;;;;;6.97;3.03;;;26.60;1.00;;;28.77;49.38;98725.09;5080463;27;130063;-76
2022/08/01 09:38:55;;;;;;;7.30;2.95;;;26.40;1.00;;;28.76;49.37;98715.13;5065816;27;128839;-77
2022/08/01 09:41:32;;;;;;;12.65;3.10;;;26.50;1.00;;;29.00;50.56;98716.22;5079470;27;122127;-73
2022/08/01 09:44:02;;;;;;;5.60;2.92;;;26.70;1.00;;;29.26;49.45;98716.06;5080716;27;121782;-71
2022/08/01 09:46:31;;;;;;;6.70;3.05;;;26.80;1.00;;;29.46;48.53;98709.34;5080062;27;130300;-75
2022/08/01 09:49:01;;;;;;;5.82;2.90;;;27.10;1.00;;;29.93;47.80;98711.06;5080898;27;130004;-77
2022/08/01 09:51:34;;;;;;;6.05;3.00;;;27.40;1.00;;;30.01;45.51;98722.72;5080693;27;119680;-75
2022/08/01 09:54:05;;;;;;;6.95;2.50;;;27.50;1.00;;;29.95;45.68;98719.78;5062743;27;118951;-75
2022/08/01 09:56:42;;;;;;;4.95;2.95;;;27.30;1.00;;;29.72;45.49;98721.84;5079225;27;129765;-78
2022/08/01 09:59:12;;;;;;;5.97;2.58;;;27.00;1.00;;;29.92;47.26;98715.09;5081004;27;130012;-75
2022/08/01 10:01:48;;;;;;;5.50;2.78;;;27.30;1.00;;;30.08;46.41;98714.81;5065600;27;118915;-80
2022/08/01 10:04:18;;;;;;;6.35;2.30;;;27.60;1.00;;;30.23;46.17;98706.59;5080947;27;119453;-77
2022/08/01 10:06:52;;;;;;;7.10;2.90;;;27.70;1.00;;;30.35;45.43;98706.91;5060352;27;130673;-76
2022/08/01 10:09:30;;;;;;;6.80;2.30;;;27.80;1.00;;;30.26;46.26;98716.06;5080037;27;128491;-77
2022/08/01 10:12:01;;;;;;;4.22;2.53;;;27.80;1.00;;;30.31;45.32;98707.06;5080272;27;119600;-77
2022/08/01 10:14:32;;;;;;;5.53;2.40;;;27.70;1.00;;;30.51;43.96;98698.25;5061985;27;120248;-76
2022/08/01 10:17:03;;;;;;;4.95;2.60;;;27.90;1.00;;;30.69;44.12;98708.63;5079294;27;130330;-80
2022/08/01 10:19:32;;;;;;;5.45;2.28;;;28.10;1.00;;;30.88;44.59;98705.78;5080212;27;129495;-79
2022/08/01 10:22:02;;;;;;;6.82;2.80;;;28.30;1.00;;;30.78;43.43;98696.66;5080114;27;119851;-78
2022/08/01 10:24:31;;;;;;;4.13;2.17;;;28.00;1.00;;;30.76;43.38;98697.13;5080741;27;119907;-77